Dades meteomassalio
Diari Summary for Diciembre 2, 2017 Units:  English    Metric   Both
« Previous Day
Next Day »
Diari Semanal Mensual Anual Personalitzat
  Maxima: Minima: Mijana:
Temperatura: 46.9 °F 34 °F 37.9 °F
Rosada: 30.7 °F 21.4 °F 26.2 °F
Humitat: 81 % 36 % 64 %
Velocitat del vent: 39.1 mph 13.8 mph 24.5 mph
Racha vent: 39.1 mph - -
Vent:- - WNW
Pressio: 30.3 in 30.1 in -
Pluja: 0 in    
Historical Graphs
 
 
Tabular Data for Diciembre 2, 2017
Time Temperature Dew Point Pressure Wind Wind Speed Wind Gust Humidity Rainfall Rate (Hourly) solar Conditions
00:07 35.1 °F 27.5 °F 30.2 in NW 31.1 mph 31.1 mph 74 % 0 in 0.0 W/m2 CLR
00:12 36 °F 28.6 °F 30.2 in NNW 28.8 mph 28.8 mph 74 % 0 in 0.0 W/m2 CLR
00:18 36 °F 28.6 °F 30.2 in NW 19.6 mph 19.6 mph 74 % 0 in 0.0 W/m2 CLR
00:23 36 °F 28.6 °F 30.2 in NNW 25.3 mph 25.3 mph 74 % 0 in 0.0 W/m2 CLR
00:28 36 °F 28.6 °F 30.2 in NNW 28 mph 28 mph 74 % 0 in 0.0 W/m2 CLR
00:33 35.1 °F 27.5 °F 30.2 in NNW 21 mph 21 mph 74 % 0 in 0.0 W/m2 CLR
00:43 35.1 °F 27.9 °F 30.2 in NW 21.9 mph 21.9 mph 75 % 0 in 0.0 W/m2 CLR
00:48 35.1 °F 27.5 °F 30.2 in NW 19.6 mph 19.6 mph 74 % 0 in 0.0 W/m2 CLR
00:58 35.1 °F 27.9 °F 30.2 in NNW 26.5 mph 26.5 mph 75 % 0 in 0.0 W/m2 CLR
01:03 35.1 °F 27.5 °F 30.2 in NNW 23 mph 23 mph 74 % 0 in 0.0 W/m2 CLR
01:08 35.1 °F 27.5 °F 30.2 in North 19.6 mph 19.6 mph 74 % 0 in 0.0 W/m2 CLR
01:13 35.1 °F 27.5 °F 30.2 in NNW 15 mph 15 mph 74 % 0 in 0.0 W/m2 CLR
01:18 35.1 °F 27.5 °F 30.2 in NW 20.7 mph 20.7 mph 74 % 0 in 0.0 W/m2 CLR
01:23 35.1 °F 27.5 °F 30.2 in NW 19.6 mph 19.6 mph 74 % 0 in 0.0 W/m2 CLR
01:28 35.1 °F 27.5 °F 30.2 in NNW 20.7 mph 20.7 mph 74 % 0 in 0.0 W/m2 CLR
01:33 35.1 °F 27.5 °F 30.2 in NW 15 mph 15 mph 74 % 0 in 0.0 W/m2 CLR
01:43 36 °F 28.6 °F 30.2 in North 26.5 mph 26.5 mph 74 % 0 in 0.0 W/m2 CLR
01:53 36 °F 28.8 °F 30.2 in NNW 23 mph 23 mph 75 % 0 in 0.0 W/m2 CLR
01:58 36 °F 28.8 °F 30.2 in NNW 21.9 mph 21.9 mph 75 % 0 in 0.0 W/m2 CLR
02:03 36 °F 28.6 °F 30.2 in NNW 16.1 mph 16.1 mph 74 % 0 in 0.0 W/m2 CLR
02:08 36 °F 28.8 °F 30.2 in NNW 18.4 mph 18.4 mph 75 % 0 in 0.0 W/m2 CLR
02:13 36 °F 28.8 °F 30.2 in NNW 19 mph 19 mph 75 % 0 in 0.0 W/m2 CLR
02:18 36 °F 28.8 °F 30.2 in NW 13.8 mph 13.8 mph 75 % 0 in 0.0 W/m2 CLR
02:23 35.1 °F 27.9 °F 30.2 in NNW 18.4 mph 18.4 mph 75 % 0 in 0.0 W/m2 CLR
02:28 36 °F 28.8 °F 30.2 in NNW 14 mph 14 mph 75 % 0 in 0.0 W/m2 CLR
02:33 36 °F 29.1 °F 30.2 in NNW 21.9 mph 21.9 mph 76 % 0 in 0.0 W/m2 CLR
02:38 36 °F 29.1 °F 30.2 in NNW 18.4 mph 18.4 mph 76 % 0 in 0.0 W/m2 CLR
02:43 36 °F 29.1 °F 30.2 in NNW 24.2 mph 24.2 mph 76 % 0 in 0.0 W/m2 CLR
02:53 36 °F 29.5 °F 30.2 in NNW 16.1 mph 16.1 mph 77 % 0 in 0.0 W/m2 CLR
03:03 36 °F 29.5 °F 30.2 in NNW 25.3 mph 25.3 mph 77 % 0 in 0.0 W/m2 CLR
03:08 36 °F 29.8 °F 30.2 in NNW 18.4 mph 18.6 mph 78 % 0 in 0.0 W/m2 CLR
03:13 36 °F 29.8 °F 30.2 in NNW 25.3 mph 25.3 mph 78 % 0 in 0.0 W/m2 CLR
03:18 36 °F 29.5 °F 30.2 in NNW 21 mph 21 mph 77 % 0 in 0.0 W/m2 CLR
03:23 36 °F 29.5 °F 30.1 in NNW 20.7 mph 20.7 mph 77 % 0 in 0.0 W/m2 CLR
03:28 36 °F 29.8 °F 30.1 in North 24.2 mph 24.2 mph 78 % 0 in 0.0 W/m2 CLR
03:33 36 °F 29.5 °F 30.1 in North 24.2 mph 24.2 mph 77 % 0 in 0.0 W/m2 CLR
03:39 36 °F 29.5 °F 30.1 in North 25.3 mph 25.3 mph 77 % 0 in 0.0 W/m2 CLR
03:44 37 °F 30.6 °F 30.1 in NNW 25.3 mph 25.3 mph 77 % 0 in 0.0 W/m2 CLR
03:49 37 °F 30.6 °F 30.1 in North 22 mph 22 mph 77 % 0 in 0.0 W/m2 CLR
03:50 37 °F 30.6 °F 30.1 in North 19.6 mph 19.6 mph 77 % 0 in 0.0 W/m2 CLR
04:00 36 °F 29.8 °F 30.1 in North 26 mph 26 mph 78 % 0 in 0.0 W/m2 CLR
04:05 36 °F 30 °F 30.1 in North 19.6 mph 19.6 mph 79 % 0 in 0.0 W/m2 CLR
04:10 36 °F 30.4 °F 30.1 in NNW 26 mph 26 mph 80 % 0 in 0.0 W/m2 CLR
04:15 36 °F 30.4 °F 30.1 in NNW 25 mph 25 mph 80 % 0 in 0.0 W/m2 CLR
04:20 36 °F 30.4 °F 30.1 in NW 26.5 mph 26.5 mph 80 % 0 in 0.0 W/m2 CLR
04:24 36 °F 30.4 °F 30.1 in NNW 21.9 mph 21.9 mph 80 % 0 in 0.0 W/m2 CLR
04:25 36 °F 30.7 °F 30.1 in NW 23 mph 23 mph 81 % 0 in 0.0 W/m2 CLR
04:27 36 °F 30.7 °F 30.1 in NNW 27 mph 27 mph 81 % 0 in 0.0 W/m2 CLR
04:30 36 °F 30.7 °F 30.1 in NNW 29.9 mph 29.9 mph 81 % 0 in 0.0 W/m2 CLR
04:35 36 °F 30.7 °F 30.1 in NW 21.9 mph 21.9 mph 81 % 0 in 0.0 W/m2 CLR
04:40 36 °F 30.7 °F 30.1 in NNW 26.5 mph 26.5 mph 81 % 0 in 0.0 W/m2 CLR
04:45 35.1 °F 29.8 °F 30.1 in NNW 22 mph 22 mph 81 % 0 in 0.0 W/m2 CLR
04:50 36 °F 30.4 °F 30.1 in NNW 21 mph 21 mph 80 % 0 in 0.0 W/m2 CLR
04:55 36 °F 30.4 °F 30.1 in NNW 24.2 mph 24.2 mph 80 % 0 in 0.0 W/m2 CLR
05:00 36 °F 30.4 °F 30.1 in NNW 26.5 mph 26.5 mph 80 % 0 in 0.0 W/m2 CLR
05:05 36 °F 30.4 °F 30.1 in North 24.2 mph 24.2 mph 80 % 0 in 0.0 W/m2 CLR
05:10 36 °F 30.4 °F 30.1 in NNW 24.2 mph 24.2 mph 80 % 0 in 0.0 W/m2 CLR
05:20 36 °F 30.4 °F 30.1 in North 19.6 mph 19.6 mph 80 % 0 in 0.0 W/m2 CLR
05:30 36 °F 30.4 °F 30.1 in NNW 18.4 mph 18.4 mph 80 % 0 in 0.0 W/m2 CLR
05:35 36 °F 30.4 °F 30.1 in North 25.3 mph 25.3 mph 80 % 0 in 0.0 W/m2 CLR
05:40 36 °F 30.4 °F 30.1 in NNW 26.5 mph 26.5 mph 80 % 0 in 0.0 W/m2 CLR
05:45 36 °F 30.4 °F 30.1 in North 17.3 mph 17.3 mph 80 % 0 in 0.0 W/m2 CLR
05:50 36 °F 30.4 °F 30.1 in North 24.2 mph 24.2 mph 80 % 0 in 0.0 W/m2 CLR
05:55 36 °F 30 °F 30.1 in NNW 21.9 mph 21.9 mph 79 % 0 in 0.0 W/m2 CLR
06:05 36 °F 30 °F 30.1 in NNW 26.5 mph 26.5 mph 79 % 0 in 0.0 W/m2 CLR
06:10 36 °F 30 °F 30.1 in NW 19.6 mph 19.6 mph 79 % 0 in 0.0 W/m2 CLR
06:15 36 °F 30 °F 30.1 in North 20.7 mph 20.7 mph 79 % 0 in 0.0 W/m2 CLR
06:20 36 °F 29.8 °F 30.1 in North 29.9 mph 29.9 mph 78 % 0 in 0.0 W/m2 CLR
06:25 36 °F 29.8 °F 30.1 in NW 19.6 mph 19.6 mph 78 % 0 in 0.0 W/m2 CLR
06:30 36 °F 29.8 °F 30.1 in NNW 35.7 mph 35.7 mph 78 % 0 in 0.0 W/m2 CLR
06:35 36 °F 29.5 °F 30.1 in NNW 28.8 mph 28.8 mph 77 % 0 in 0.0 W/m2 CLR
06:40 36 °F 29.5 °F 30.1 in North 27 mph 27 mph 77 % 0 in 0.0 W/m2 CLR
06:45 36 °F 29.5 °F 30.1 in North 25.3 mph 25.3 mph 77 % 0 in 0.0 W/m2 CLR
06:50 36 °F 29.5 °F 30.1 in North 35 mph 35 mph 77 % 0 in 0.0 W/m2 CLR
06:55 36 °F 29.1 °F 30.1 in NNW 29.9 mph 29.9 mph 76 % 0 in 0.0 W/m2 CLR
07:00 36 °F 29.1 °F 30.1 in North 28.8 mph 28.8 mph 76 % 0 in 0.0 W/m2 CLR
07:05 36 °F 29.1 °F 30.1 in North 27.6 mph 27.6 mph 76 % 0 in 0.0 W/m2 CLR
07:20 36 °F 29.1 °F 30.1 in NNW 24.2 mph 24.2 mph 76 % 0 in 0.0 W/m2 CLR
07:25 35.1 °F 27.9 °F 30.1 in North 21.9 mph 21.9 mph 75 % 0 in 0.0 W/m2 CLR
07:30 36 °F 28.8 °F 30.1 in NNW 28 mph 28 mph 75 % 0 in 0.0 W/m2 CLR
07:35 35.1 °F 27.9 °F 30.1 in NNW 25.3 mph 25.3 mph 75 % 0 in 0.0 W/m2 CLR
07:40 36 °F 28.8 °F 30.1 in North 28.8 mph 28.8 mph 75 % 0 in 0.0 W/m2 CLR
07:45 35.1 °F 27.9 °F 30.2 in NNW 23 mph 23 mph 75 % 0 in 0.0 W/m2 CLR
07:50 35.1 °F 27.5 °F 30.2 in North 25 mph 25 mph 74 % 0 in 0.0 W/m2 CLR
08:05 35.1 °F 27.5 °F 30.2 in North 29 mph 29 mph 74 % 0 in 5.0 W/m2 OVC
08:10 35.1 °F 27.5 °F 30.2 in NNW 29.9 mph 29.9 mph 74 % 0 in 7.0 W/m2 BKN
08:15 35.1 °F 27.5 °F 30.2 in NNW 26 mph 26 mph 74 % 0 in 9.0 W/m2 BKN
08:20 35.1 °F 27.5 °F 30.2 in NNW 25.3 mph 25.3 mph 74 % 0 in 11.0 W/m2 BKN
08:35 35.1 °F 27.1 °F 30.2 in North 26.5 mph 26.5 mph 73 % 0 in 19.0 W/m2 BKN
08:41 35.1 °F 27 °F 30.2 in NNW 27.6 mph 27.6 mph 72 % 0 in 28.0 W/m2 BKN
08:51 35.1 °F 27 °F 30.2 in NNW 27.6 mph 27.6 mph 72 % 0 in 42.0 W/m2 SCT
09:01 35.1 °F 26.4 °F 30.2 in NW 25.3 mph 25.3 mph 71 % 0 in 72.0 W/m2 FEW
09:06 36 °F 27.1 °F 30.2 in NNW 27.6 mph 27.6 mph 70 % 0 in 72.0 W/m2 SCT
09:11 36 °F 27.1 °F 30.2 in NNW 27.6 mph 27.6 mph 70 % 0 in 91.0 W/m2 FEW
09:16 36 °F 26.8 °F 30.2 in North 21.9 mph 21.9 mph 69 % 0 in 95.0 W/m2 CLR
09:21 36 °F 26.8 °F 30.2 in NNW 25.3 mph 25.3 mph 69 % 0 in 81.0 W/m2 CLR
09:31 36 °F 26.4 °F 30.2 in North 33.4 mph 33.4 mph 68 % 0 in 155.0 W/m2 CLR
09:36 36 °F 26.1 °F 30.2 in NNW 25.3 mph 25.3 mph 67 % 0 in 142.0 W/m2 CLR
09:41 36 °F 26.1 °F 30.2 in North 24.2 mph 24.2 mph 67 % 0 in 183.0 W/m2 CLR
09:46 36 °F 25.7 °F 30.2 in NW 26.5 mph 26.5 mph 66 % 0 in 197.0 W/m2 CLR
09:51 37 °F 26.2 °F 30.2 in North 29 mph 29 mph 65 % 0 in 142.0 W/m2 CLR
10:01 37 °F 25.9 °F 30.2 in NNW 23 mph 23 mph 64 % 0 in 183.0 W/m2 CLR
10:06 37 °F 25.5 °F 30.2 in NNW 34.5 mph 34.5 mph 63 % 0 in 251.0 W/m2 CLR
10:11 37 °F 25.2 °F 30.2 in NNW 29.9 mph 29.9 mph 62 % 0 in 264.0 W/m2 CLR
10:16 37.9 °F 25.7 °F 30.2 in North 39.1 mph 39.1 mph 61 % 0 in 274.0 W/m2 CLR
10:21 37.9 °F 25.7 °F 30.2 in NNW 27.6 mph 27.6 mph 61 % 0 in 285.0 W/m2 CLR
10:26 37.9 °F 25 °F 30.2 in North 28 mph 28 mph 59 % 0 in 297.0 W/m2 CLR
10:31 37.9 °F 24.4 °F 30.2 in NNW 34.5 mph 34.5 mph 58 % 0 in 308.0 W/m2 CLR
10:36 37.9 °F 24.4 °F 30.2 in NNW 26.5 mph 26.5 mph 58 % 0 in 316.0 W/m2 CLR
10:41 37.9 °F 24.1 °F 30.2 in North 25.3 mph 25.3 mph 57 % 0 in 325.0 W/m2 CLR
10:51 39 °F 24.3 °F 30.2 in North 33.4 mph 33.4 mph 55 % 0 in 343.0 W/m2 CLR
10:56 39 °F 24.3 °F 30.2 in NW 31.1 mph 31.1 mph 55 % 0 in 352.0 W/m2 CLR
11:01 39 °F 23.7 °F 30.2 in NNW 25.3 mph 25.3 mph 54 % 0 in 359.0 W/m2 CLR
11:06 39.9 °F 24.6 °F 30.2 in North 29 mph 29 mph 54 % 0 in 366.0 W/m2 CLR
11:11 39.9 °F 24.6 °F 30.2 in NNW 24 mph 24 mph 54 % 0 in 373.0 W/m2 CLR
11:16 39.9 °F 24.3 °F 30.2 in North 26 mph 26 mph 53 % 0 in 380.0 W/m2 CLR
11:21 39.9 °F 24.6 °F 30.2 in NW 27 mph 27 mph 54 % 0 in 385.0 W/m2 CLR
11:26 39.9 °F 23.7 °F 30.2 in North 26.5 mph 26.5 mph 52 % 0 in 394.0 W/m2 CLR
11:36 41 °F 24.3 °F 30.2 in North 27.6 mph 27.6 mph 51 % 0 in 404.0 W/m2 CLR
11:41 41 °F 24.3 °F 30.2 in North 29.9 mph 29.9 mph 51 % 0 in 411.0 W/m2 CLR
11:46 41 °F 24.3 °F 30.2 in North 32.2 mph 32.2 mph 51 % 0 in 415.0 W/m2 CLR
11:51 41 °F 23.7 °F 30.2 in North 34.5 mph 34.5 mph 50 % 0 in 422.0 W/m2 CLR
11:56 41 °F 23.7 °F 30.2 in North 28 mph 28 mph 50 % 0 in 427.0 W/m2 CLR
12:01 41 °F 23.7 °F 30.2 in North 26.5 mph 26.5 mph 50 % 0 in 429.0 W/m2 CLR
12:06 42.1 °F 24.6 °F 30.2 in North 29.9 mph 29.9 mph 50 % 0 in 431.0 W/m2 CLR
12:16 42.1 °F 24.3 °F 30.2 in NNE 32.2 mph 32.2 mph 49 % 0 in 441.0 W/m2 CLR
12:21 42.1 °F 23.7 °F 30.2 in NNW 32.2 mph 32.2 mph 48 % 0 in 445.0 W/m2 CLR
12:31 42.1 °F 24.3 °F 30.2 in North 32.2 mph 32.2 mph 49 % 0 in 446.0 W/m2 CLR
12:36 42.1 °F 23.7 °F 30.2 in North 27.6 mph 27.6 mph 48 % 0 in 446.0 W/m2 CLR
12:41 42.1 °F 23.7 °F 30.2 in NNW 29 mph 29 mph 48 % 0 in 446.0 W/m2 CLR
12:51 43 °F 24.6 °F 30.2 in NNW 33.4 mph 33.4 mph 48 % 0 in 450.0 W/m2 CLR
12:56 43 °F 24.6 °F 30.2 in North 27 mph 27 mph 48 % 0 in 445.0 W/m2 CLR
13:06 43 °F 23.5 °F 30.2 in North 29.9 mph 29.9 mph 46 % 0 in 445.0 W/m2 CLR
13:11 43 °F 23.5 °F 30.1 in North 34 mph 34 mph 46 % 0 in 445.0 W/m2 CLR
13:16 43 °F 23.5 °F 30.1 in North 28.8 mph 28.8 mph 46 % 0 in 443.0 W/m2 CLR
13:22 44.1 °F 24.1 °F 30.1 in North 29.9 mph 29.9 mph 45 % 0 in 441.0 W/m2 CLR
13:27 44.1 °F 24.1 °F 30.1 in NNE 28.8 mph 28.8 mph 45 % 0 in 436.0 W/m2 CLR
13:32 44.1 °F 24.1 °F 30.1 in NNE 34.5 mph 34.5 mph 45 % 0 in 434.0 W/m2 CLR
13:37 44.1 °F 24.1 °F 30.1 in NNE 32.2 mph 32.2 mph 45 % 0 in 429.0 W/m2 CLR
13:42 44.1 °F 24.1 °F 30.1 in North 34.5 mph 34.5 mph 45 % 0 in 424.0 W/m2 CLR
13:47 44.1 °F 23.5 °F 30.1 in North 38 mph 38 mph 44 % 0 in 422.0 W/m2 CLR
13:52 45 °F 24.4 °F 30.1 in NNW 26.5 mph 26.5 mph 44 % 0 in 415.0 W/m2 CLR
13:57 45 °F 24.4 °F 30.1 in North 28.8 mph 28.8 mph 44 % 0 in 408.0 W/m2 CLR
14:02 45 °F 24.4 °F 30.1 in NW 19.6 mph 19.6 mph 44 % 0 in 401.0 W/m2 CLR
14:07 45 °F 23.7 °F 30.1 in NNW 27.6 mph 27.6 mph 43 % 0 in 397.0 W/m2 CLR
14:12 45 °F 23.7 °F 30.1 in NNW 26.5 mph 26.5 mph 43 % 0 in 392.0 W/m2 CLR
14:17 46 °F 24.6 °F 30.1 in NNW 30 mph 30 mph 43 % 0 in 387.0 W/m2 CLR
14:22 46 °F 24.6 °F 30.1 in North 29.9 mph 29.9 mph 43 % 0 in 378.0 W/m2 CLR
14:32 46 °F 24.3 °F 30.1 in NNW 26.5 mph 26.5 mph 42 % 0 in 366.0 W/m2 CLR
14:43 46.9 °F 22.6 °F 30.1 in North 26.5 mph 26.5 mph 38 % 0 in 350.0 W/m2 CLR
14:48 46.9 °F 21.4 °F 30.1 in NNW 28 mph 28 mph 36 % 0 in 341.0 W/m2 CLR
14:58 46 °F 24.3 °F 30.1 in NW 31.1 mph 31.1 mph 42 % 0 in 320.0 W/m2 CLR
15:03 46 °F 25.3 °F 30.1 in NNW 22 mph 22 mph 44 % 0 in 311.0 W/m2 CLR
15:08 46 °F 25.3 °F 30.1 in NNW 19.6 mph 19.6 mph 44 % 0 in 304.0 W/m2 CLR
15:18 46 °F 25.3 °F 30.1 in NNW 31.1 mph 31.1 mph 44 % 0 in 287.0 W/m2 CLR
15:23 45 °F 24.4 °F 30.1 in North 29.9 mph 29.9 mph 44 % 0 in 274.0 W/m2 CLR
15:28 45 °F 25 °F 30.1 in NW 26.5 mph 26.5 mph 45 % 0 in 262.0 W/m2 CLR
15:48 45 °F 25.3 °F 30.1 in NNW 23 mph 23 mph 46 % 0 in 207.0 W/m2 CLR
15:58 44.1 °F 24.4 °F 30.1 in North 26.5 mph 26.5 mph 46 % 0 in 181.0 W/m2 CLR
16:13 44.1 °F 24.4 °F 30.1 in NNW 34.5 mph 34.5 mph 46 % 0 in 137.0 W/m2 CLR
16:28 43 °F 24.1 °F 30.1 in NNW 25.3 mph 25.3 mph 47 % 0 in 97.0 W/m2 CLR
16:33 43 °F 24.1 °F 30.1 in WNW 21.9 mph 21.9 mph 47 % 0 in 86.0 W/m2 CLR
16:38 43 °F 24.1 °F 30.1 in WNW 27 mph 27 mph 47 % 0 in 60.0 W/m2 SCT
16:43 43 °F 24.1 °F 30.1 in NW 23 mph 23 mph 47 % 0 in 47.0 W/m2 SCT
16:48 42.1 °F 23.7 °F 30.1 in NW 18 mph 18 mph 48 % 0 in 46.0 W/m2 SCT
16:53 42.1 °F 23.2 °F 30.1 in North 25 mph 25 mph 47 % 0 in 39.0 W/m2 BKN
17:03 42.1 °F 23.7 °F 30.1 in NNW 15 mph 15 mph 48 % 0 in 23.0 W/m2 BKN
17:08 42.1 °F 23.7 °F 30.1 in North 27.6 mph 27.6 mph 48 % 0 in 18.0 W/m2 BKN
17:18 41 °F 23.4 °F 30.1 in NW 26.5 mph 26.5 mph 49 % 0 in 12.0 W/m2 BKN
17:28 41 °F 24.6 °F 30.1 in NNW 25.3 mph 25.3 mph 52 % 0 in 7.0 W/m2 BKN
17:38 39.9 °F 24.3 °F 30.1 in NNW 27.6 mph 27.6 mph 53 % 0 in 0.0 W/m2 OVC
17:43 39.9 °F 24.3 °F 30.1 in NW 21.9 mph 21.9 mph 53 % 0 in 0.0 W/m2 CLR
17:53 39.9 °F 24.6 °F 30.1 in NW 24.2 mph 24.2 mph 54 % 0 in 0.0 W/m2 CLR
18:03 39 °F 23.7 °F 30.1 in NW 25.3 mph 25.3 mph 54 % 0 in 0.0 W/m2 CLR
18:08 39 °F 23.7 °F 30.1 in NNW 18.4 mph 18.4 mph 54 % 0 in 0.0 W/m2 CLR
18:14 39 °F 23.7 °F 30.1 in NNW 25.3 mph 25.3 mph 54 % 0 in 0.0 W/m2 CLR
18:19 39 °F 23.7 °F 30.2 in NW 17.3 mph 17.3 mph 54 % 0 in 0.0 W/m2 CLR
18:24 39 °F 23.7 °F 30.2 in NW 17.3 mph 17.3 mph 54 % 0 in 0.0 W/m2 CLR
18:29 39 °F 23.7 °F 30.2 in NW 21 mph 21 mph 54 % 0 in 0.0 W/m2 CLR
18:34 39 °F 23.7 °F 30.2 in NW 18.4 mph 18.4 mph 54 % 0 in 0.0 W/m2 CLR
18:39 39 °F 24.3 °F 30.2 in NNW 26.5 mph 26.5 mph 55 % 0 in 0.0 W/m2 CLR
18:44 37.9 °F 23.4 °F 30.2 in NNW 19.6 mph 19.6 mph 55 % 0 in 0.0 W/m2 CLR
18:49 37.9 °F 23.7 °F 30.2 in NW 24.2 mph 24.2 mph 56 % 0 in 0.0 W/m2 CLR
18:59 37.9 °F 24.1 °F 30.2 in NNW 19.6 mph 19.6 mph 57 % 0 in 0.0 W/m2 CLR
19:04 37.9 °F 24.4 °F 30.2 in NNW 17.3 mph 17.3 mph 58 % 0 in 0.0 W/m2 CLR
19:14 37.9 °F 24.4 °F 30.2 in NNW 25.3 mph 25.3 mph 58 % 0 in 0.0 W/m2 CLR
19:19 37.9 °F 25 °F 30.2 in NNW 24.2 mph 24.2 mph 59 % 0 in 0.0 W/m2 CLR
19:24 37 °F 24.1 °F 30.2 in NNW 19.6 mph 19.6 mph 59 % 0 in 0.0 W/m2 CLR
19:29 37 °F 24.1 °F 30.2 in North 27 mph 27 mph 59 % 0 in 0.0 W/m2 CLR
19:39 37 °F 24.4 °F 30.2 in NW 19.6 mph 19.6 mph 60 % 0 in 0.0 W/m2 CLR
19:44 37 °F 24.4 °F 30.2 in North 25.3 mph 25.3 mph 60 % 0 in 0.0 W/m2 CLR
19:49 37 °F 24.4 °F 30.2 in NNW 20.7 mph 20.7 mph 60 % 0 in 0.0 W/m2 CLR
19:54 37 °F 24.4 °F 30.2 in NW 23 mph 23 mph 60 % 0 in 0.0 W/m2 CLR
19:59 37 °F 24.4 °F 30.2 in NNW 18.4 mph 18.4 mph 60 % 0 in 0.0 W/m2 CLR
20:04 37 °F 24.4 °F 30.2 in NNW 17.3 mph 17.3 mph 60 % 0 in 0.0 W/m2 CLR
20:09 37 °F 24.4 °F 30.2 in North 20.7 mph 20.7 mph 60 % 0 in 0.0 W/m2 CLR
20:14 37 °F 24.4 °F 30.2 in NNW 20.7 mph 20.7 mph 60 % 0 in 0.0 W/m2 CLR
20:24 36 °F 23 °F 30.2 in NNW 18.4 mph 18.4 mph 59 % 0 in 0.0 W/m2 CLR
20:34 36 °F 23 °F 30.2 in North 16.1 mph 16.1 mph 59 % 0 in 0.0 W/m2 CLR
20:39 37 °F 23.5 °F 30.2 in NNW 32.2 mph 32.2 mph 58 % 0 in 0.0 W/m2 CLR
20:44 37 °F 23.2 °F 30.2 in NNW 21.9 mph 21.9 mph 57 % 0 in 0.0 W/m2 CLR
20:49 37 °F 23.2 °F 30.2 in NNW 19.6 mph 19.6 mph 57 % 0 in 0.0 W/m2 CLR
20:54 36 °F 22.3 °F 30.2 in NNW 20.7 mph 20.7 mph 57 % 0 in 0.0 W/m2 CLR
20:59 36 °F 22.3 °F 30.2 in NNW 19.6 mph 19.6 mph 57 % 0 in 0.0 W/m2 CLR
21:04 36 °F 22.3 °F 30.2 in NNW 19.6 mph 19.6 mph 57 % 0 in 0.0 W/m2 CLR
21:14 36 °F 22.6 °F 30.2 in North 25.3 mph 25.3 mph 58 % 0 in 0.0 W/m2 CLR
21:19 36 °F 22.6 °F 30.2 in NNW 20.7 mph 20.7 mph 58 % 0 in 0.0 W/m2 CLR
21:24 36 °F 22.6 °F 30.2 in NNW 20.7 mph 20.7 mph 58 % 0 in 0.0 W/m2 CLR
21:29 36 °F 22.6 °F 30.2 in NNW 15 mph 15 mph 58 % 0 in 0.0 W/m2 CLR
21:49 35.1 °F 22.5 °F 30.2 in NNW 19.6 mph 19.6 mph 60 % 0 in 0.0 W/m2 CLR
21:54 35.1 °F 22.8 °F 30.2 in NNW 26.5 mph 26.5 mph 61 % 0 in 0.0 W/m2 CLR
22:04 35.1 °F 23.4 °F 30.2 in NNW 29.9 mph 29.9 mph 62 % 0 in 0.0 W/m2 CLR
22:09 35.1 °F 23.4 °F 30.2 in North 20.7 mph 20.7 mph 62 % 0 in 0.0 W/m2 CLR
22:14 35.1 °F 23.7 °F 30.3 in NNW 20.7 mph 20.7 mph 63 % 0 in 0.0 W/m2 CLR
22:19 35.1 °F 24.1 °F 30.3 in NNW 21.9 mph 21.9 mph 64 % 0 in 0.0 W/m2 CLR
22:24 35.1 °F 24.1 °F 30.3 in North 21 mph 21 mph 64 % 0 in 0.0 W/m2 CLR
22:29 35.1 °F 24.4 °F 30.3 in NNW 21.9 mph 21.9 mph 65 % 0 in 0.0 W/m2 CLR
22:34 35.1 °F 24.4 °F 30.3 in NNW 20.7 mph 20.7 mph 65 % 0 in 0.0 W/m2 CLR
22:44 35.1 °F 24.4 °F 30.3 in NNW 21.9 mph 21.9 mph 65 % 0 in 0.0 W/m2 CLR
22:49 35.1 °F 24.8 °F 30.3 in NW 15 mph 15 mph 66 % 0 in 0.0 W/m2 CLR
22:59 35.1 °F 24.8 °F 30.3 in NNW 21.9 mph 21.9 mph 66 % 0 in 0.0 W/m2 CLR
23:19 35.1 °F 24.8 °F 30.3 in NW 25.3 mph 25.3 mph 66 % 0 in 0.0 W/m2 CLR
23:34 35.1 °F 24.8 °F 30.3 in NW 17.3 mph 17.3 mph 66 % 0 in 0.0 W/m2 CLR
23:39 35.1 °F 24.8 °F 30.3 in NW 15 mph 15 mph 66 % 0 in 0.0 W/m2 CLR
23:44 35.1 °F 24.8 °F 30.3 in NW 16.1 mph 16.1 mph 66 % 0 in 0.0 W/m2 CLR
23:49 34 °F 23.7 °F 30.3 in NW 16.1 mph 16.1 mph 66 % 0 in 0.0 W/m2 CLR
23:59 34 °F 23.7 °F 30.3 in NW 18.4 mph 18.4 mph 66 % 0 in 0.0 W/m2 CLR
Lo Temps de Massalio
Compliments of Weather Underground - 1 mb